Terminal Aerodrome Forecast
Issued by NWS Grand Forks, ND

Home | Current Version | Previous Version | Text Only | Print | Product List | Glossary Off
Versions: 1 2 3 4 5 6 7 8 9 10 11 12 13 14 15 16 17 18 19 20

000
FTUS43 KFGF 291600 AAB
TAFFAR
TAF AMD
KFAR 291606Z 2916/3012 02010KT P6SM BKN005
      TEMPO 2916/2918 3SM BR BKN015
     FM291800 06008KT P6SM BKN025
     FM292300 11010KT P6SM SKC=

USA.gov is the U.S. government's official web portal to all federal, state and local government web resources and services.